sensor_id;sensor_type;location;lat;lon;timestamp;temperature;humidity
4429;DHT22;2227;47.810;8.810;2023-05-21T04:31:00;14.20;99.90
4429;DHT22;2227;47.810;8.810;2023-05-21T04:33:27;14.20;99.90
4429;DHT22;2227;47.810;8.810;2023-05-21T04:35:54;14.20;99.90
4429;DHT22;2227;47.810;8.810;2023-05-21T04:38:21;14.20;99.90
4429;DHT22;2227;47.810;8.810;2023-05-21T04:40:51;14.30;99.90
4429;DHT22;2227;47.810;8.810;2023-05-21T04:43:19;14.30;99.90
4429;DHT22;2227;47.810;8.810;2023-05-21T04:45:52;14.30;99.90
4429;DHT22;2227;47.810;8.810;2023-05-21T04:48:24;14.40;99.90
4429;DHT22;2227;47.810;8.810;2023-05-21T04:50:52;14.50;99.90
4429;DHT22;2227;47.810;8.810;2023-05-21T04:53:19;14.40;99.90
4429;DHT22;2227;47.810;8.810;2023-05-21T04:55:46;14.50;99.90
4429;DHT22;2227;47.810;8.810;2023-05-21T04:58:15;14.50;99.90
4429;DHT22;2227;47.810;8.810;2023-05-21T05:00:44;14.60;99.90
4429;DHT22;2227;47.810;8.810;2023-05-21T05:03:12;14.60;99.90
4429;DHT22;2227;47.810;8.810;2023-05-21T05:05:40;14.70;99.90
4429;DHT22;2227;47.810;8.810;2023-05-21T05:08:07;14.70;99.90
4429;DHT22;2227;47.810;8.810;2023-05-21T05:10:34;14.80;99.90
4429;DHT22;2227;47.810;8.810;2023-05-21T05:13:01;14.90;99.90
4429;DHT22;2227;47.810;8.810;2023-05-21T05:15:28;14.90;99.90
4429;DHT22;2227;47.810;8.810;2023-05-21T05:17:54;14.90;99.90
4429;DHT22;2227;47.810;8.810;2023-05-21T05:20:22;14.90;99.90
4429;DHT22;2227;47.810;8.810;2023-05-21T05:22:49;14.90;99.90
4429;DHT22;2227;47.810;8.810;2023-05-21T05:25:15;15.00;99.90
4429;DHT22;2227;47.810;8.810;2023-05-21T05:27:42;15.00;99.90
4429;DHT22;2227;47.810;8.810;2023-05-21T05:30:09;15.10;99.90
4429;DHT22;2227;47.810;8.810;2023-05-21T05:32:36;15.20;99.90
4429;DHT22;2227;47.810;8.810;2023-05-21T05:35:04;15.20;99.90
4429;DHT22;2227;47.810;8.810;2023-05-21T05:37:30;15.30;99.90
4429;DHT22;2227;47.810;8.810;2023-05-21T05:39:58;15.30;99.90
4429;DHT22;2227;47.810;8.810;2023-05-21T05:42:25;15.40;99.90
4429;DHT22;2227;47.810;8.810;2023-05-21T05:44:52;15.50;99.90
4429;DHT22;2227;47.810;8.810;2023-05-21T05:47:19;15.50;99.90
4429;DHT22;2227;47.810;8.810;2023-05-21T05:49:47;15.60;99.90
4429;DHT22;2227;47.810;8.810;2023-05-21T05:52:14;15.60;99.90
4429;DHT22;2227;47.810;8.810;2023-05-21T05:54:40;15.80;99.90
4429;DHT22;2227;47.810;8.810;2023-05-21T05:57:07;15.80;99.90
4429;DHT22;2227;47.810;8.810;2023-05-21T05:59:34;15.90;99.90
4429;DHT22;2227;47.810;8.810;2023-05-21T06:02:01;16.00;99.90
4429;DHT22;2227;47.810;8.810;2023-05-21T06:04:28;16.10;99.90
4429;DHT22;2227;47.810;8.810;2023-05-21T06:06:56;16.20;99.90
4429;DHT22;2227;47.810;8.810;2023-05-21T06:09:23;16.30;99.90
4429;DHT22;2227;47.810;8.810;2023-05-21T06:11:50;16.40;99.90
4429;DHT22;2227;47.810;8.810;2023-05-21T06:14:17;16.40;99.90
4429;DHT22;2227;47.810;8.810;2023-05-21T06:16:43;16.40;99.90
4429;DHT22;2227;47.810;8.810;2023-05-21T06:19:10;16.60;99.90
4429;DHT22;2227;47.810;8.810;2023-05-21T06:21:37;16.70;99.90
4429;DHT22;2227;47.810;8.810;2023-05-21T06:24:04;16.80;99.90
4429;DHT22;2227;47.810;8.810;2023-05-21T06:26:31;16.80;99.90
4429;DHT22;2227;47.810;8.810;2023-05-21T06:28:58;17.00;99.90
4429;DHT22;2227;47.810;8.810;2023-05-21T06:31:24;17.10;99.90
4429;DHT22;2227;47.810;8.810;2023-05-21T06:33:51;17.20;99.90
4429;DHT22;2227;47.810;8.810;2023-05-21T06:36:18;17.40;99.90
4429;DHT22;2227;47.810;8.810;2023-05-21T06:38:45;17.50;99.90
4429;DHT22;2227;47.810;8.810;2023-05-21T06:41:12;17.60;99.90
4429;DHT22;2227;47.810;8.810;2023-05-21T06:43:39;17.70;99.90
4429;DHT22;2227;47.810;8.810;2023-05-21T06:46:05;17.70;99.90
4429;DHT22;2227;47.810;8.810;2023-05-21T06:48:32;17.80;99.90
4429;DHT22;2227;47.810;8.810;2023-05-21T06:50:59;17.80;99.90
4429;DHT22;2227;47.810;8.810;2023-05-21T06:53:26;17.90;99.90
4429;DHT22;2227;47.810;8.810;2023-05-21T06:55:53;17.90;99.90
4429;DHT22;2227;47.810;8.810;2023-05-21T06:58:20;18.00;99.90
4429;DHT22;2227;47.810;8.810;2023-05-21T07:00:47;18.20;99.90
4429;DHT22;2227;47.810;8.810;2023-05-21T07:03:14;18.20;99.90
4429;DHT22;2227;47.810;8.810;2023-05-21T07:05:41;18.30;99.90
4429;DHT22;2227;47.810;8.810;2023-05-21T07:08:08;18.40;99.90
4429;DHT22;2227;47.810;8.810;2023-05-21T07:10:37;18.50;99.90
4429;DHT22;2227;47.810;8.810;2023-05-21T07:13:04;18.60;99.90
4429;DHT22;2227;47.810;8.810;2023-05-21T07:15:31;18.60;99.90
4429;DHT22;2227;47.810;8.810;2023-05-21T07:17:57;18.70;99.90
4429;DHT22;2227;47.810;8.810;2023-05-21T07:20:24;18.80;99.90
4429;DHT22;2227;47.810;8.810;2023-05-21T07:22:51;18.80;99.90
4429;DHT22;2227;47.810;8.810;2023-05-21T07:25:18;18.90;99.90
4429;DHT22;2227;47.810;8.810;2023-05-21T07:27:45;18.90;99.90
4429;DHT22;2227;47.810;8.810;2023-05-21T07:30:13;19.00;99.90
4429;DHT22;2227;47.810;8.810;2023-05-21T07:32:40;19.00;99.90
4429;DHT22;2227;47.810;8.810;2023-05-21T07:35:07;19.00;99.90
4429;DHT22;2227;47.810;8.810;2023-05-21T07:37:34;19.10;99.90
4429;DHT22;2227;47.810;8.810;2023-05-21T07:40:01;19.10;99.90
4429;DHT22;2227;47.810;8.810;2023-05-21T07:42:29;19.20;99.90
4429;DHT22;2227;47.810;8.810;2023-05-21T07:44:56;19.40;99.90
4429;DHT22;2227;47.810;8.810;2023-05-21T07:47:23;19.40;99.90
4429;DHT22;2227;47.810;8.810;2023-05-21T07:49:49;19.50;99.90
4429;DHT22;2227;47.810;8.810;2023-05-21T07:52:16;19.50;99.90
4429;DHT22;2227;47.810;8.810;2023-05-21T07:54:43;19.60;99.90
4429;DHT22;2227;47.810;8.810;2023-05-21T07:57:10;19.40;99.90
4429;DHT22;2227;47.810;8.810;2023-05-21T07:59:37;19.50;99.90
4429;DHT22;2227;47.810;8.810;2023-05-21T08:02:04;19.40;99.90
4429;DHT22;2227;47.810;8.810;2023-05-21T08:04:30;19.60;99.90
4429;DHT22;2227;47.810;8.810;2023-05-21T08:06:58;19.70;99.90
4429;DHT22;2227;47.810;8.810;2023-05-21T08:09:25;19.80;99.90
4429;DHT22;2227;47.810;8.810;2023-05-21T08:11:52;19.80;99.90
4429;DHT22;2227;47.810;8.810;2023-05-21T08:14:18;19.60;99.90
4429;DHT22;2227;47.810;8.810;2023-05-21T08:16:45;19.40;99.90
4429;DHT22;2227;47.810;8.810;2023-05-21T08:19:12;19.60;99.90
4429;DHT22;2227;47.810;8.810;2023-05-21T08:21:39;19.50;99.90
4429;DHT22;2227;47.810;8.810;2023-05-21T08:24:06;19.50;99.90
4429;DHT22;2227;47.810;8.810;2023-05-21T08:26:33;19.50;99.90
4429;DHT22;2227;47.810;8.810;2023-05-21T08:28:59;19.70;99.90
4429;DHT22;2227;47.810;8.810;2023-05-21T08:31:27;19.80;99.90
4429;DHT22;2227;47.810;8.810;2023-05-21T08:33:53;20.00;99.90
4429;DHT22;2227;47.810;8.810;2023-05-21T08:36:23;20.30;99.90
4429;DHT22;2227;47.810;8.810;2023-05-21T08:38:50;20.60;99.90
4429;DHT22;2227;47.810;8.810;2023-05-21T08:41:17;20.60;99.90
4429;DHT22;2227;47.810;8.810;2023-05-21T08:43:47;20.60;99.90
4429;DHT22;2227;47.810;8.810;2023-05-21T08:46:22;20.60;99.90
4429;DHT22;2227;47.810;8.810;2023-05-21T08:48:50;20.50;99.90
4429;DHT22;2227;47.810;8.810;2023-05-21T08:51:21;20.60;99.90
4429;DHT22;2227;47.810;8.810;2023-05-21T08:53:49;20.90;99.90
4429;DHT22;2227;47.810;8.810;2023-05-21T08:56:16;21.00;99.90
4429;DHT22;2227;47.810;8.810;2023-05-21T08:58:47;20.80;99.90
4429;DHT22;2227;47.810;8.810;2023-05-21T09:01:14;21.00;99.90
4429;DHT22;2227;47.810;8.810;2023-05-21T09:03:46;20.90;99.90
4429;DHT22;2227;47.810;8.810;2023-05-21T09:06:13;20.80;99.90
4429;DHT22;2227;47.810;8.810;2023-05-21T09:08:44;21.10;99.90
4429;DHT22;2227;47.810;8.810;2023-05-21T09:11:15;21.50;99.90
4429;DHT22;2227;47.810;8.810;2023-05-21T09:13:42;21.80;99.90
4429;DHT22;2227;47.810;8.810;2023-05-21T09:16:11;22.20;99.90
4429;DHT22;2227;47.810;8.810;2023-05-21T09:18:38;22.70;99.90
4429;DHT22;2227;47.810;8.810;2023-05-21T09:21:24;22.90;99.90
4429;DHT22;2227;47.810;8.810;2023-05-21T09:23:56;23.10;99.90
4429;DHT22;2227;47.810;8.810;2023-05-21T09:26:24;23.40;99.90
4429;DHT22;2227;47.810;8.810;2023-05-21T09:28:56;23.40;99.90
4429;DHT22;2227;47.810;8.810;2023-05-21T09:31:23;23.50;99.90
4429;DHT22;2227;47.810;8.810;2023-05-21T09:33:52;23.00;99.90
4429;DHT22;2227;47.810;8.810;2023-05-21T09:36:21;23.40;99.90
4429;DHT22;2227;47.810;8.810;2023-05-21T09:38:49;23.30;99.90
4429;DHT22;2227;47.810;8.810;2023-05-21T09:41:18;23.60;99.90
4429;DHT22;2227;47.810;8.810;2023-05-21T09:43:47;23.80;99.90
4429;DHT22;2227;47.810;8.810;2023-05-21T09:46:15;24.30;99.90
4429;DHT22;2227;47.810;8.810;2023-05-21T09:48:46;24.70;99.90
4429;DHT22;2227;47.810;8.810;2023-05-21T09:51:18;25.40;99.90
4429;DHT22;2227;47.810;8.810;2023-05-21T09:53:54;25.80;99.90
4429;DHT22;2227;47.810;8.810;2023-05-21T09:56:25;26.00;99.90
4429;DHT22;2227;47.810;8.810;2023-05-21T09:58:56;26.00;99.90
4429;DHT22;2227;47.810;8.810;2023-05-21T10:01:26;25.80;99.90
4429;DHT22;2227;47.810;8.810;2023-05-21T10:03:55;25.40;99.90
4429;DHT22;2227;47.810;8.810;2023-05-21T10:06:27;25.30;99.90
4429;DHT22;2227;47.810;8.810;2023-05-21T10:08:55;25.60;99.90
4429;DHT22;2227;47.810;8.810;2023-05-21T10:11:25;25.90;99.90
4429;DHT22;2227;47.810;8.810;2023-05-21T10:13:57;26.20;99.90
4429;DHT22;2227;47.810;8.810;2023-05-21T10:16:27;25.90;99.90
4429;DHT22;2227;47.810;8.810;2023-05-21T10:18:55;25.40;99.90
4429;DHT22;2227;47.810;8.810;2023-05-21T10:21:23;25.30;99.90
4429;DHT22;2227;47.810;8.810;2023-05-21T10:23:52;25.20;99.90
4429;DHT22;2227;47.810;8.810;2023-05-21T10:26:19;25.10;99.90
4429;DHT22;2227;47.810;8.810;2023-05-21T10:28:49;24.80;99.90
4429;DHT22;2227;47.810;8.810;2023-05-21T10:31:17;25.00;99.90
4429;DHT22;2227;47.810;8.810;2023-05-21T10:33:44;25.10;99.90
4429;DHT22;2227;47.810;8.810;2023-05-21T10:36:11;25.30;99.90
4429;DHT22;2227;47.810;8.810;2023-05-21T10:38:39;25.70;99.90
4429;DHT22;2227;47.810;8.810;2023-05-21T10:41:06;25.80;99.00
4429;DHT22;2227;47.810;8.810;2023-05-21T10:43:44;25.50;98.80
4429;DHT22;2227;47.810;8.810;2023-05-21T10:52:06;26.60;97.30
4429;DHT22;2227;47.810;8.810;2023-05-21T11:00:00;28.20;93.00
4429;DHT22;2227;47.810;8.810;2023-05-21T11:02:27;28.20;92.60
4429;DHT22;2227;47.810;8.810;2023-05-21T11:04:58;27.60;93.90
4429;DHT22;2227;47.810;8.810;2023-05-21T11:07:51;27.60;93.70
4429;DHT22;2227;47.810;8.810;2023-05-21T11:10:36;27.00;94.80
4429;DHT22;2227;47.810;8.810;2023-05-21T11:13:12;26.30;96.50
4429;DHT22;2227;47.810;8.810;2023-05-21T11:21:15;26.70;93.20
4429;DHT22;2227;47.810;8.810;2023-05-21T11:23:59;26.40;93.60
4429;DHT22;2227;47.810;8.810;2023-05-21T11:26:57;26.40;93.80
4429;DHT22;2227;47.810;8.810;2023-05-21T11:29:16;26.80;93.20
4429;DHT22;2227;47.810;8.810;2023-05-21T11:31:49;27.10;90.90
4429;DHT22;2227;47.810;8.810;2023-05-21T11:34:24;27.40;91.10
4429;DHT22;2227;47.810;8.810;2023-05-21T11:39:44;27.90;94.20
4429;DHT22;2227;47.810;8.810;2023-05-21T11:42:12;27.70;94.30
4429;DHT22;2227;47.810;8.810;2023-05-21T11:44:40;27.40;95.00
4429;DHT22;2227;47.810;8.810;2023-05-21T11:47:09;27.40;94.40
4429;DHT22;2227;47.810;8.810;2023-05-21T11:49:37;27.70;92.50
4429;DHT22;2227;47.810;8.810;2023-05-21T11:52:06;27.70;93.70
4429;DHT22;2227;47.810;8.810;2023-05-21T11:54:43;27.50;92.00
4429;DHT22;2227;47.810;8.810;2023-05-21T11:57:12;27.40;92.50
4429;DHT22;2227;47.810;8.810;2023-05-21T11:59:44;27.80;92.40
4429;DHT22;2227;47.810;8.810;2023-05-21T12:02:15;28.20;91.60
4429;DHT22;2227;47.810;8.810;2023-05-21T12:04:48;28.10;91.40
4429;DHT22;2227;47.810;8.810;2023-05-21T12:07:16;28.20;90.30
4429;DHT22;2227;47.810;8.810;2023-05-21T12:09:47;28.20;88.80
4429;DHT22;2227;47.810;8.810;2023-05-21T12:12:15;28.20;89.20
4429;DHT22;2227;47.810;8.810;2023-05-21T12:14:46;27.70;90.20
4429;DHT22;2227;47.810;8.810;2023-05-21T12:17:20;28.00;87.80
4429;DHT22;2227;47.810;8.810;2023-05-21T12:19:50;28.30;89.30
4429;DHT22;2227;47.810;8.810;2023-05-21T12:22:17;28.00;89.50
4429;DHT22;2227;47.810;8.810;2023-05-21T12:24:44;27.60;90.50
4429;DHT22;2227;47.810;8.810;2023-05-21T12:27:12;27.70;88.20
4429;DHT22;2227;47.810;8.810;2023-05-21T12:29:41;27.80;88.20
4429;DHT22;2227;47.810;8.810;2023-05-21T12:32:13;27.90;87.10
4429;DHT22;2227;47.810;8.810;2023-05-21T12:34:42;28.40;84.60
4429;DHT22;2227;47.810;8.810;2023-05-21T12:37:17;29.10;84.00
4429;DHT22;2227;47.810;8.810;2023-05-21T12:39:47;28.90;83.20
4429;DHT22;2227;47.810;8.810;2023-05-21T12:42:14;28.40;84.50
4429;DHT22;2227;47.810;8.810;2023-05-21T12:44:46;27.80;85.40
4429;DHT22;2227;47.810;8.810;2023-05-21T12:47:13;27.40;84.90
4429;DHT22;2227;47.810;8.810;2023-05-21T12:49:41;27.10;83.70
4429;DHT22;2227;47.810;8.810;2023-05-21T12:52:10;26.80;85.80
4429;DHT22;2227;47.810;8.810;2023-05-21T12:54:39;26.70;85.90
4429;DHT22;2227;47.810;8.810;2023-05-21T12:57:15;26.70;83.00
4429;DHT22;2227;47.810;8.810;2023-05-21T12:59:48;26.60;82.10
4429;DHT22;2227;47.810;8.810;2023-05-21T13:02:21;26.70;83.20
4429;DHT22;2227;47.810;8.810;2023-05-21T13:04:55;27.00;82.70
4429;DHT22;2227;47.810;8.810;2023-05-21T13:07:23;27.40;81.30
4429;DHT22;2227;47.810;8.810;2023-05-21T13:09:50;27.40;81.30
4429;DHT22;2227;47.810;8.810;2023-05-21T13:12:23;27.90;81.30
4429;DHT22;2227;47.810;8.810;2023-05-21T13:14:50;28.20;82.30
4429;DHT22;2227;47.810;8.810;2023-05-21T13:17:18;28.60;80.10
4429;DHT22;2227;47.810;8.810;2023-05-21T13:22:45;29.60;75.70
4429;DHT22;2227;47.810;8.810;2023-05-21T13:25:15;29.70;75.40
4429;DHT22;2227;47.810;8.810;2023-05-21T13:27:42;29.20;77.40
4429;DHT22;2227;47.810;8.810;2023-05-21T13:30:10;28.50;79.20
4429;DHT22;2227;47.810;8.810;2023-05-21T13:32:40;28.00;78.90
4429;DHT22;2227;47.810;8.810;2023-05-21T13:35:08;27.60;77.80
4429;DHT22;2227;47.810;8.810;2023-05-21T13:37:39;27.20;80.00
4429;DHT22;2227;47.810;8.810;2023-05-21T13:40:08;27.00;80.70
4429;DHT22;2227;47.810;8.810;2023-05-21T13:42:37;26.80;81.00
4429;DHT22;2227;47.810;8.810;2023-05-21T13:45:05;26.60;85.10
4429;DHT22;2227;47.810;8.810;2023-05-21T13:47:32;26.40;86.50
4429;DHT22;2227;47.810;8.810;2023-05-21T13:49:59;26.60;83.60
4429;DHT22;2227;47.810;8.810;2023-05-21T13:52:26;26.70;81.90
4429;DHT22;2227;47.810;8.810;2023-05-21T13:54:53;26.90;85.00
4429;DHT22;2227;47.810;8.810;2023-05-21T13:57:20;26.80;86.70
4429;DHT22;2227;47.810;8.810;2023-05-21T13:59:47;26.80;84.00
4429;DHT22;2227;47.810;8.810;2023-05-21T14:02:15;26.70;81.60
4429;DHT22;2227;47.810;8.810;2023-05-21T14:04:43;26.70;83.00
4429;DHT22;2227;47.810;8.810;2023-05-21T14:07:09;26.70;85.40
4429;DHT22;2227;47.810;8.810;2023-05-21T14:09:39;27.00;86.90
4429;DHT22;2227;47.810;8.810;2023-05-21T14:12:07;26.80;88.50
4429;DHT22;2227;47.810;8.810;2023-05-21T14:14:34;26.50;89.40
4429;DHT22;2227;47.810;8.810;2023-05-21T14:17:01;26.60;89.70
4429;DHT22;2227;47.810;8.810;2023-05-21T14:19:28;26.60;89.30
4429;DHT22;2227;47.810;8.810;2023-05-21T14:21:56;26.20;88.50
4429;DHT22;2227;47.810;8.810;2023-05-21T14:24:23;25.80;89.20
4429;DHT22;2227;47.810;8.810;2023-05-21T14:26:49;25.70;90.30
4429;DHT22;2227;47.810;8.810;2023-05-21T14:29:16;25.60;90.80
4429;DHT22;2227;47.810;8.810;2023-05-21T14:31:43;25.50;90.70
4429;DHT22;2227;47.810;8.810;2023-05-21T14:34:11;25.40;91.10
4429;DHT22;2227;47.810;8.810;2023-05-21T14:36:38;25.40;91.10
4429;DHT22;2227;47.810;8.810;2023-05-21T14:39:05;25.60;91.00
4429;DHT22;2227;47.810;8.810;2023-05-21T14:41:31;26.00;91.10
4429;DHT22;2227;47.810;8.810;2023-05-21T14:43:58;26.30;90.60
4429;DHT22;2227;47.810;8.810;2023-05-21T14:46:25;26.70;90.00
4429;DHT22;2227;47.810;8.810;2023-05-21T14:48:52;26.70;91.50
4429;DHT22;2227;47.810;8.810;2023-05-21T14:51:20;26.60;92.50
4429;DHT22;2227;47.810;8.810;2023-05-21T14:53:47;26.60;92.70
4429;DHT22;2227;47.810;8.810;2023-05-21T14:56:14;26.40;92.70
4429;DHT22;2227;47.810;8.810;2023-05-21T14:58:41;26.50;92.80
4429;DHT22;2227;47.810;8.810;2023-05-21T15:01:07;26.40;92.50
4429;DHT22;2227;47.810;8.810;2023-05-21T15:03:34;26.30;92.40
4429;DHT22;2227;47.810;8.810;2023-05-21T15:06:01;26.20;92.60
4429;DHT22;2227;47.810;8.810;2023-05-21T15:08:28;26.20;92.60
4429;DHT22;2227;47.810;8.810;2023-05-21T15:10:55;26.30;92.30
4429;DHT22;2227;47.810;8.810;2023-05-21T15:13:22;26.30;92.10
4429;DHT22;2227;47.810;8.810;2023-05-21T15:15:49;26.50;92.30
4429;DHT22;2227;47.810;8.810;2023-05-21T15:18:16;26.70;92.50
4429;DHT22;2227;47.810;8.810;2023-05-21T15:20:43;27.00;91.50
4429;DHT22;2227;47.810;8.810;2023-05-21T15:23:10;27.30;91.10
4429;DHT22;2227;47.810;8.810;2023-05-21T15:25:43;27.50;90.80
4429;DHT22;2227;47.810;8.810;2023-05-21T15:28:11;27.70;90.50
4429;DHT22;2227;47.810;8.810;2023-05-21T15:30:38;27.90;90.30
4429;DHT22;2227;47.810;8.810;2023-05-21T15:33:05;28.10;89.50
4429;DHT22;2227;47.810;8.810;2023-05-21T15:35:33;28.30;88.30
4429;DHT22;2227;47.810;8.810;2023-05-21T15:38:00;28.60;88.50
4429;DHT22;2227;47.810;8.810;2023-05-21T15:40:26;28.80;88.10
4429;DHT22;2227;47.810;8.810;2023-05-21T15:42:53;29.00;86.20
4429;DHT22;2227;47.810;8.810;2023-05-21T15:45:20;29.30;84.40
4429;DHT22;2227;47.810;8.810;2023-05-21T15:47:46;29.30;83.40
4429;DHT22;2227;47.810;8.810;2023-05-21T15:50:14;29.50;82.10
4429;DHT22;2227;47.810;8.810;2023-05-21T15:52:41;29.60;80.70
4429;DHT22;2227;47.810;8.810;2023-05-21T15:55:08;29.60;81.40
4429;DHT22;2227;47.810;8.810;2023-05-21T15:57:35;29.70;81.40
4429;DHT22;2227;47.810;8.810;2023-05-21T16:00:02;29.80;80.00
4429;DHT22;2227;47.810;8.810;2023-05-21T16:02:30;30.00;79.00
4429;DHT22;2227;47.810;8.810;2023-05-21T16:04:57;29.90;79.30
4429;DHT22;2227;47.810;8.810;2023-05-21T16:07:24;29.80;77.90
4429;DHT22;2227;47.810;8.810;2023-05-21T16:09:50;29.50;78.30
4429;DHT22;2227;47.810;8.810;2023-05-21T16:12:17;29.30;79.10
4429;DHT22;2227;47.810;8.810;2023-05-21T16:14:46;29.10;79.60
4429;DHT22;2227;47.810;8.810;2023-05-21T16:17:15;28.90;80.00
4429;DHT22;2227;47.810;8.810;2023-05-21T16:19:42;28.60;80.70
4429;DHT22;2227;47.810;8.810;2023-05-21T16:22:09;28.30;81.00
4429;DHT22;2227;47.810;8.810;2023-05-21T16:24:36;28.20;82.30
4429;DHT22;2227;47.810;8.810;2023-05-21T16:27:03;27.90;81.40
4429;DHT22;2227;47.810;8.810;2023-05-21T16:29:30;27.70;82.10
4429;DHT22;2227;47.810;8.810;2023-05-21T16:31:57;27.40;82.40
4429;DHT22;2227;47.810;8.810;2023-05-21T16:34:24;27.20;82.70
4429;DHT22;2227;47.810;8.810;2023-05-21T16:36:51;26.90;83.90
4429;DHT22;2227;47.810;8.810;2023-05-21T16:39:18;26.70;84.40
4429;DHT22;2227;47.810;8.810;2023-05-21T16:41:45;26.60;84.20
4429;DHT22;2227;47.810;8.810;2023-05-21T16:44:12;26.40;83.10
4429;DHT22;2227;47.810;8.810;2023-05-21T16:46:39;26.40;82.50
4429;DHT22;2227;47.810;8.810;2023-05-21T16:49:06;26.40;82.10
4429;DHT22;2227;47.810;8.810;2023-05-21T16:51:33;26.30;81.90
4429;DHT22;2227;47.810;8.810;2023-05-21T16:54:00;26.20;82.00
4429;DHT22;2227;47.810;8.810;2023-05-21T16:56:28;26.20;82.00
4429;DHT22;2227;47.810;8.810;2023-05-21T16:58:55;26.10;82.10
4429;DHT22;2227;47.810;8.810;2023-05-21T17:01:21;26.00;82.20
4429;DHT22;2227;47.810;8.810;2023-05-21T17:03:48;25.90;84.10
4429;DHT22;2227;47.810;8.810;2023-05-21T17:06:16;25.80;86.60
4429;DHT22;2227;47.810;8.810;2023-05-21T17:08:42;25.70;87.90
4429;DHT22;2227;47.810;8.810;2023-05-21T17:11:09;25.60;88.40
4429;DHT22;2227;47.810;8.810;2023-05-21T17:13:36;25.50;90.10
4429;DHT22;2227;47.810;8.810;2023-05-21T17:16:03;25.40;86.90
4429;DHT22;2227;47.810;8.810;2023-05-21T17:18:30;25.30;86.90
4429;DHT22;2227;47.810;8.810;2023-05-21T17:20:56;25.10;87.50
4429;DHT22;2227;47.810;8.810;2023-05-21T17:23:24;25.00;84.80
4429;DHT22;2227;47.810;8.810;2023-05-21T17:25:51;24.70;85.50
4429;DHT22;2227;47.810;8.810;2023-05-21T17:28:18;24.70;87.80
4429;DHT22;2227;47.810;8.810;2023-05-21T17:30:45;24.70;90.10
4429;DHT22;2227;47.810;8.810;2023-05-21T17:33:15;24.60;90.80
4429;DHT22;2227;47.810;8.810;2023-05-21T17:35:41;24.40;92.00
4429;DHT22;2227;47.810;8.810;2023-05-21T17:38:08;24.30;92.10
4429;DHT22;2227;47.810;8.810;2023-05-21T17:40:35;24.20;91.50
4429;DHT22;2227;47.810;8.810;2023-05-21T17:43:03;24.10;91.70
4429;DHT22;2227;47.810;8.810;2023-05-21T17:45:30;24.00;92.00
4429;DHT22;2227;47.810;8.810;2023-05-21T17:47:57;23.70;92.50
4429;DHT22;2227;47.810;8.810;2023-05-21T17:50:26;23.60;93.00
4429;DHT22;2227;47.810;8.810;2023-05-21T17:52:53;23.40;92.50
4429;DHT22;2227;47.810;8.810;2023-05-21T17:55:20;23.20;92.50
4429;DHT22;2227;47.810;8.810;2023-05-21T17:57:46;23.10;92.90
4429;DHT22;2227;47.810;8.810;2023-05-21T18:00:13;23.00;92.60
4429;DHT22;2227;47.810;8.810;2023-05-21T18:02:40;22.80;91.90
4429;DHT22;2227;47.810;8.810;2023-05-21T18:05:07;22.70;92.40
4429;DHT22;2227;47.810;8.810;2023-05-21T18:07:34;22.70;92.60
4429;DHT22;2227;47.810;8.810;2023-05-21T18:10:01;22.70;92.30
4429;DHT22;2227;47.810;8.810;2023-05-21T18:12:27;22.60;91.70
4429;DHT22;2227;47.810;8.810;2023-05-21T18:14:54;22.50;92.00
4429;DHT22;2227;47.810;8.810;2023-05-21T18:17:21;22.30;92.30
4429;DHT22;2227;47.810;8.810;2023-05-21T18:19:49;22.10;92.90
4429;DHT22;2227;47.810;8.810;2023-05-21T18:22:16;22.00;93.00
4429;DHT22;2227;47.810;8.810;2023-05-21T18:24:42;21.90;92.70
4429;DHT22;2227;47.810;8.810;2023-05-21T18:27:09;21.80;92.20
4429;DHT22;2227;47.810;8.810;2023-05-21T18:29:37;21.80;92.10
4429;DHT22;2227;47.810;8.810;2023-05-21T18:32:04;21.60;92.60
4429;DHT22;2227;47.810;8.810;2023-05-21T18:34:31;21.60;92.20
4429;DHT22;2227;47.810;8.810;2023-05-21T18:36:58;21.60;92.20
4429;DHT22;2227;47.810;8.810;2023-05-21T18:39:25;21.50;92.30
4429;DHT22;2227;47.810;8.810;2023-05-21T18:41:53;21.50;91.70
4429;DHT22;2227;47.810;8.810;2023-05-21T18:44:38;21.50;92.10
4429;DHT22;2227;47.810;8.810;2023-05-21T18:47:05;21.60;92.60
4429;DHT22;2227;47.810;8.810;2023-05-21T18:49:33;21.50;93.00
4429;DHT22;2227;47.810;8.810;2023-05-21T18:52:01;21.40;93.50
4429;DHT22;2227;47.810;8.810;2023-05-21T18:54:28;21.30;93.90
4429;DHT22;2227;47.810;8.810;2023-05-21T18:56:55;21.30;94.20
4429;DHT22;2227;47.810;8.810;2023-05-21T18:59:25;21.20;94.60
4429;DHT22;2227;47.810;8.810;2023-05-21T19:01:53;21.10;95.60
4429;DHT22;2227;47.810;8.810;2023-05-21T19:04:20;21.10;96.10
4429;DHT22;2227;47.810;8.810;2023-05-21T19:06:47;21.00;96.40
4429;DHT22;2227;47.810;8.810;2023-05-21T19:09:13;21.00;97.40
4429;DHT22;2227;47.810;8.810;2023-05-21T19:11:40;20.90;97.80
4429;DHT22;2227;47.810;8.810;2023-05-21T19:14:07;20.90;98.20
4429;DHT22;2227;47.810;8.810;2023-05-21T19:16:33;20.80;98.60
4429;DHT22;2227;47.810;8.810;2023-05-21T19:19:00;20.70;99.10
4429;DHT22;2227;47.810;8.810;2023-05-21T19:21:28;20.50;99.50
4429;DHT22;2227;47.810;8.810;2023-05-21T19:23:55;20.50;99.80
4429;DHT22;2227;47.810;8.810;2023-05-21T19:26:22;20.50;99.90
4429;DHT22;2227;47.810;8.810;2023-05-21T19:28:49;20.40;99.90
4429;DHT22;2227;47.810;8.810;2023-05-21T19:31:20;20.30;99.90
4429;DHT22;2227;47.810;8.810;2023-05-21T19:33:47;20.30;99.90
4429;DHT22;2227;47.810;8.810;2023-05-21T19:36:14;20.30;99.90
4429;DHT22;2227;47.810;8.810;2023-05-21T19:38:45;20.20;99.90
4429;DHT22;2227;47.810;8.810;2023-05-21T19:41:15;20.00;99.90
4429;DHT22;2227;47.810;8.810;2023-05-21T19:43:42;19.90;99.90
4429;DHT22;2227;47.810;8.810;2023-05-21T19:46:08;19.80;99.90
4429;DHT22;2227;47.810;8.810;2023-05-21T19:48:35;19.70;99.90
4429;DHT22;2227;47.810;8.810;2023-05-21T19:51:02;19.60;99.90
4429;DHT22;2227;47.810;8.810;2023-05-21T19:53:29;19.60;99.90
4429;DHT22;2227;47.810;8.810;2023-05-21T19:55:56;19.50;99.90
4429;DHT22;2227;47.810;8.810;2023-05-21T19:58:22;19.50;99.90
4429;DHT22;2227;47.810;8.810;2023-05-21T20:00:52;19.40;99.90
4429;DHT22;2227;47.810;8.810;2023-05-21T20:03:27;19.40;99.90
4429;DHT22;2227;47.810;8.810;2023-05-21T20:06:03;19.40;99.90
4429;DHT22;2227;47.810;8.810;2023-05-21T20:08:29;19.40;99.90
4429;DHT22;2227;47.810;8.810;2023-05-21T20:10:56;19.40;99.90
4429;DHT22;2227;47.810;8.810;2023-05-21T20:13:23;19.40;99.90
4429;DHT22;2227;47.810;8.810;2023-05-21T20:15:50;19.30;99.90
4429;DHT22;2227;47.810;8.810;2023-05-21T20:18:17;19.40;99.90
4429;DHT22;2227;47.810;8.810;2023-05-21T20:20:47;19.40;99.90
4429;DHT22;2227;47.810;8.810;2023-05-21T20:23:14;19.50;99.90
4429;DHT22;2227;47.810;8.810;2023-05-21T20:25:41;19.40;99.90
4429;DHT22;2227;47.810;8.810;2023-05-21T20:28:08;19.30;99.90
4429;DHT22;2227;47.810;8.810;2023-05-21T20:30:51;19.30;99.90
4429;DHT22;2227;47.810;8.810;2023-05-21T20:33:18;19.30;99.90
4429;DHT22;2227;47.810;8.810;2023-05-21T20:35:45;19.20;99.90
4429;DHT22;2227;47.810;8.810;2023-05-21T20:38:12;19.20;99.90
4429;DHT22;2227;47.810;8.810;2023-05-21T20:40:42;19.10;99.90
4429;DHT22;2227;47.810;8.810;2023-05-21T20:43:09;19.10;99.90
4429;DHT22;2227;47.810;8.810;2023-05-21T20:45:37;19.10;99.90
4429;DHT22;2227;47.810;8.810;2023-05-21T20:48:07;19.20;99.90
4429;DHT22;2227;47.810;8.810;2023-05-21T20:50:35;19.10;99.90
4429;DHT22;2227;47.810;8.810;2023-05-21T20:53:03;19.10;99.90
4429;DHT22;2227;47.810;8.810;2023-05-21T20:55:29;19.10;99.90
4429;DHT22;2227;47.810;8.810;2023-05-21T20:58:01;19.10;99.90
4429;DHT22;2227;47.810;8.810;2023-05-21T21:00:28;19.10;99.90